Terminal Aerodrome Forecast
Issued by NWS

Home | Current Version | Previous Version | Text Only | Print | Product List | Glossary On
Versions: 1 2 3 4 5 6 7 8 9 10 11 12 13 14 15 16 17 18 19 20 21 22 23 24 25 26 27 28
000
FTUS41 KBUF 171502 AAB
TAFJHW
TAF AMD
KJHW 171502Z 1715/1812 22007KT 3SM -SN OVC009
     FM171800 26010G16KT P6SM BKN012
     FM172000 26010G16KT P6SM BKN130
     FM180200 23013KT P6SM BKN070
     FM180600 23014KT P6SM BKN140
      AMD LTD TO CLD VIS AND WIND=

USA.gov is the U.S. government's official web portal to all federal, state and local government web resources and services.